sensor_id;sensor_type;location;lat;lon;timestamp;pressure;altitude;pressure_sealevel;temperature;humidity
44992;BME280;56865;51.618;7.406;2023-03-19T00:01:40;100377.53;;;17.08;100.00
44992;BME280;56865;51.618;7.406;2023-03-19T00:04:12;100372.13;;;17.56;100.00
44992;BME280;56865;51.618;7.406;2023-03-19T00:06:42;100388.56;;;17.40;100.00
44992;BME280;56865;51.618;7.406;2023-03-19T00:09:14;100393.38;;;17.89;100.00
44992;BME280;56865;51.618;7.406;2023-03-19T00:11:58;100388.66;;;17.19;100.00
44992;BME280;56865;51.618;7.406;2023-03-19T00:14:29;100403.22;;;17.20;100.00
44992;BME280;56865;51.618;7.406;2023-03-19T00:17:00;100393.06;;;16.76;100.00
44992;BME280;56865;51.618;7.406;2023-03-19T00:19:37;100400.72;;;17.10;100.00
44992;BME280;56865;51.618;7.406;2023-03-19T00:22:07;100401.56;;;17.10;100.00
44992;BME280;56865;51.618;7.406;2023-03-19T00:24:40;100397.19;;;17.23;100.00
44992;BME280;56865;51.618;7.406;2023-03-19T00:27:16;100381.88;;;16.94;100.00
44992;BME280;56865;51.618;7.406;2023-03-19T00:29:51;100393.28;;;18.09;100.00
44992;BME280;56865;51.618;7.406;2023-03-19T00:32:28;100391.19;;;17.29;100.00
44992;BME280;56865;51.618;7.406;2023-03-19T00:35:06;100383.31;;;17.50;100.00
44992;BME280;56865;51.618;7.406;2023-03-19T00:37:44;100397.66;;;19.60;100.00
44992;BME280;56865;51.618;7.406;2023-03-19T00:40:24;100395.91;;;20.18;100.00
44992;BME280;56865;51.618;7.406;2023-03-19T00:43:01;100382.53;;;17.42;100.00
44992;BME280;56865;51.618;7.406;2023-03-19T00:48:42;100382.56;;;17.36;100.00
44992;BME280;56865;51.618;7.406;2023-03-19T00:51:24;100382.31;;;17.73;100.00
44992;BME280;56865;51.618;7.406;2023-03-19T00:54:03;100391.41;;;19.75;100.00
44992;BME280;56865;51.618;7.406;2023-03-19T00:56:56;100402.63;;;20.28;100.00
44992;BME280;56865;51.618;7.406;2023-03-19T00:59:41;100411.16;;;20.34;100.00
44992;BME280;56865;51.618;7.406;2023-03-19T01:02:28;100418.25;;;20.22;100.00
44992;BME280;56865;51.618;7.406;2023-03-19T01:05:10;100433.66;;;20.30;100.00
44992;BME280;56865;51.618;7.406;2023-03-19T01:08:00;100427.22;;;20.54;100.00
44992;BME280;56865;51.618;7.406;2023-03-19T01:10:53;100425.03;;;20.29;100.00
44992;BME280;56865;51.618;7.406;2023-03-19T01:13:50;100411.19;;;20.32;100.00
44992;BME280;56865;51.618;7.406;2023-03-19T01:16:52;100420.97;;;20.14;100.00
44992;BME280;56865;51.618;7.406;2023-03-19T01:19:39;100417.78;;;19.98;100.00
44992;BME280;56865;51.618;7.406;2023-03-19T01:22:46;100419.47;;;20.00;100.00
44992;BME280;56865;51.618;7.406;2023-03-19T01:25:31;100403.38;;;19.84;100.00
44992;BME280;56865;51.618;7.406;2023-03-19T01:28:03;100407.63;;;19.85;100.00
44992;BME280;56865;51.618;7.406;2023-03-19T01:30:38;100408.66;;;19.73;100.00
44992;BME280;56865;51.618;7.406;2023-03-19T01:33:40;100408.88;;;19.56;100.00
44992;BME280;56865;51.618;7.406;2023-03-19T01:36:21;100406.22;;;19.62;100.00
44992;BME280;56865;51.618;7.406;2023-03-19T01:38:58;100402.22;;;19.39;100.00
44992;BME280;56865;51.618;7.406;2023-03-19T01:41:44;100404.88;;;19.33;100.00
44992;BME280;56865;51.618;7.406;2023-03-19T01:44:27;100386.31;;;19.05;100.00
44992;BME280;56865;51.618;7.406;2023-03-19T01:47:00;100390.44;;;19.18;100.00
44992;BME280;56865;51.618;7.406;2023-03-19T01:53:13;100401.09;;;18.92;100.00
44992;BME280;56865;51.618;7.406;2023-03-19T01:56:20;100403.13;;;18.60;100.00
44992;BME280;56865;51.618;7.406;2023-03-19T01:59:19;100404.03;;;18.55;100.00
44992;BME280;56865;51.618;7.406;2023-03-19T02:02:24;100404.94;;;18.50;100.00
44992;BME280;56865;51.618;7.406;2023-03-19T02:05:19;100404.44;;;18.08;100.00
44992;BME280;56865;51.618;7.406;2023-03-19T02:08:14;100399.00;;;18.41;100.00
44992;BME280;56865;51.618;7.406;2023-03-19T02:14:07;100394.97;;;18.12;100.00
44992;BME280;56865;51.618;7.406;2023-03-19T02:17:09;100395.22;;;17.76;100.00
44992;BME280;56865;51.618;7.406;2023-03-19T02:19:58;100387.75;;;17.30;100.00
44992;BME280;56865;51.618;7.406;2023-03-19T02:22:50;100391.19;;;17.24;100.00
44992;BME280;56865;51.618;7.406;2023-03-19T02:28:31;100381.38;;;17.86;100.00
44992;BME280;56865;51.618;7.406;2023-03-19T02:31:20;100378.91;;;17.71;100.00
44992;BME280;56865;51.618;7.406;2023-03-19T02:37:33;100381.41;;;17.82;100.00
44992;BME280;56865;51.618;7.406;2023-03-19T02:40:35;100378.84;;;17.77;100.00
44992;BME280;56865;51.618;7.406;2023-03-19T02:43:38;100388.22;;;17.89;100.00
44992;BME280;56865;51.618;7.406;2023-03-19T02:46:26;100381.31;;;17.96;100.00
44992;BME280;56865;51.618;7.406;2023-03-19T02:48:57;100379.75;;;17.71;100.00
44992;BME280;56865;51.618;7.406;2023-03-19T02:51:27;100381.50;;;17.68;100.00
44992;BME280;56865;51.618;7.406;2023-03-19T02:53:57;100381.50;;;17.71;100.00
44992;BME280;56865;51.618;7.406;2023-03-19T02:56:29;100378.91;;;17.68;100.00
44992;BME280;56865;51.618;7.406;2023-03-19T02:59:03;100384.91;;;17.76;100.00
44992;BME280;56865;51.618;7.406;2023-03-19T03:01:35;100384.25;;;17.37;100.00
44992;BME280;56865;51.618;7.406;2023-03-19T03:04:05;100377.38;;;17.42;100.00
44992;BME280;56865;51.618;7.406;2023-03-19T03:06:36;100378.16;;;17.55;100.00
44992;BME280;56865;51.618;7.406;2023-03-19T03:09:07;100381.00;;;16.92;100.00
44992;BME280;56865;51.618;7.406;2023-03-19T03:11:37;100376.59;;;17.21;100.00
44992;BME280;56865;51.618;7.406;2023-03-19T03:14:14;100372.28;;;17.27;100.00
44992;BME280;56865;51.618;7.406;2023-03-19T03:17:23;100366.97;;;17.56;100.00
44992;BME280;56865;51.618;7.406;2023-03-19T03:20:22;100369.47;;;17.67;100.00
44992;BME280;56865;51.618;7.406;2023-03-19T03:23:11;100375.56;;;17.60;100.00
44992;BME280;56865;51.618;7.406;2023-03-19T03:26:01;100373.66;;;17.83;100.00
44992;BME280;56865;51.618;7.406;2023-03-19T03:28:43;100372.03;;;17.70;100.00
44992;BME280;56865;51.618;7.406;2023-03-19T03:31:24;100375.41;;;17.80;100.00
44992;BME280;56865;51.618;7.406;2023-03-19T03:34:02;100383.97;;;17.82;100.00
44992;BME280;56865;51.618;7.406;2023-03-19T03:37:20;100378.97;;;17.65;100.00
44992;BME280;56865;51.618;7.406;2023-03-19T03:43:40;100386.63;;;17.74;100.00
44992;BME280;56865;51.618;7.406;2023-03-19T03:46:17;100384.66;;;18.12;100.00
44992;BME280;56865;51.618;7.406;2023-03-19T03:49:24;100383.91;;;17.90;100.00
44992;BME280;56865;51.618;7.406;2023-03-19T03:52:13;100387.91;;;18.34;100.00
44992;BME280;56865;51.618;7.406;2023-03-19T03:55:21;100382.72;;;18.32;100.00
44992;BME280;56865;51.618;7.406;2023-03-19T03:58:16;100385.44;;;18.22;100.00
44992;BME280;56865;51.618;7.406;2023-03-19T04:01:35;100385.72;;;17.81;100.00
44992;BME280;56865;51.618;7.406;2023-03-19T04:10:50;100396.88;;;19.52;100.00
44992;BME280;56865;51.618;7.406;2023-03-19T04:13:41;100390.41;;;18.42;100.00
44992;BME280;56865;51.618;7.406;2023-03-19T04:16:31;100391.19;;;18.51;100.00
44992;BME280;56865;51.618;7.406;2023-03-19T04:19:14;100390.31;;;18.51;100.00
44992;BME280;56865;51.618;7.406;2023-03-19T04:21:49;100392.88;;;18.54;100.00
44992;BME280;56865;51.618;7.406;2023-03-19T04:24:19;100394.47;;;18.64;100.00
44992;BME280;56865;51.618;7.406;2023-03-19T04:26:51;100393.91;;;19.17;100.00
44992;BME280;56865;51.618;7.406;2023-03-19T04:29:21;100398.09;;;18.45;100.00
44992;BME280;56865;51.618;7.406;2023-03-19T04:32:15;100396.34;;;18.51;100.00
44992;BME280;56865;51.618;7.406;2023-03-19T04:35:42;100396.00;;;18.82;100.00
44992;BME280;56865;51.618;7.406;2023-03-19T04:42:01;100407.16;;;18.91;100.00
44992;BME280;56865;51.618;7.406;2023-03-19T04:44:33;100410.56;;;18.91;100.00
44992;BME280;56865;51.618;7.406;2023-03-19T04:47:03;100411.44;;;18.90;100.00
44992;BME280;56865;51.618;7.406;2023-03-19T04:49:32;100423.28;;;19.07;100.00
44992;BME280;56865;51.618;7.406;2023-03-19T04:52:02;100420.88;;;18.93;100.00
44992;BME280;56865;51.618;7.406;2023-03-19T04:54:34;100420.69;;;19.10;100.00
44992;BME280;56865;51.618;7.406;2023-03-19T04:57:12;100419.63;;;18.42;100.00
44992;BME280;56865;51.618;7.406;2023-03-19T05:00:36;100423.16;;;18.37;100.00
44992;BME280;56865;51.618;7.406;2023-03-19T05:04:04;100422.69;;;18.81;100.00
44992;BME280;56865;51.618;7.406;2023-03-19T08:06:43;100156.03;;;19.26;100.00
44992;BME280;56865;51.618;7.406;2023-03-19T08:09:12;100159.25;;;19.39;100.00
44992;BME280;56865;51.618;7.406;2023-03-19T08:11:42;100158.56;;;18.73;100.00
44992;BME280;56865;51.618;7.406;2023-03-19T08:14:12;100156.25;;;18.55;100.00
44992;BME280;56865;51.618;7.406;2023-03-19T08:16:44;100163.56;;;18.22;100.00
44992;BME280;56865;51.618;7.406;2023-03-19T08:19:14;100143.53;;;19.03;100.00
44992;BME280;56865;51.618;7.406;2023-03-19T08:21:47;100179.84;;;18.92;100.00
44992;BME280;56865;51.618;7.406;2023-03-19T08:24:17;100190.00;;;18.39;100.00
44992;BME280;56865;51.618;7.406;2023-03-19T08:26:47;100209.47;;;19.24;100.00
44992;BME280;56865;51.618;7.406;2023-03-19T08:29:17;100194.97;;;19.15;100.00
44992;BME280;56865;51.618;7.406;2023-03-19T08:31:47;100216.19;;;19.36;100.00
44992;BME280;56865;51.618;7.406;2023-03-19T08:34:19;100207.75;;;19.76;100.00
44992;BME280;56865;51.618;7.406;2023-03-19T08:36:52;100227.53;;;20.26;100.00
44992;BME280;56865;51.618;7.406;2023-03-19T08:39:21;100226.50;;;18.78;100.00
44992;BME280;56865;51.618;7.406;2023-03-19T08:41:51;100218.22;;;19.15;100.00
44992;BME280;56865;51.618;7.406;2023-03-19T08:44:21;100232.41;;;19.44;100.00
44992;BME280;56865;51.618;7.406;2023-03-19T08:46:51;100244.94;;;19.69;100.00
44992;BME280;56865;51.618;7.406;2023-03-19T08:49:21;100249.88;;;19.30;100.00
44992;BME280;56865;51.618;7.406;2023-03-19T08:51:53;100266.53;;;19.10;100.00
44992;BME280;56865;51.618;7.406;2023-03-19T08:54:22;100262.53;;;19.48;100.00
44992;BME280;56865;51.618;7.406;2023-03-19T08:56:54;100252.72;;;19.13;100.00
44992;BME280;56865;51.618;7.406;2023-03-19T08:59:24;100285.38;;;19.73;100.00
44992;BME280;56865;51.618;7.406;2023-03-19T09:01:54;100288.19;;;20.12;100.00
44992;BME280;56865;51.618;7.406;2023-03-19T09:04:24;100325.06;;;19.72;100.00
44992;BME280;56865;51.618;7.406;2023-03-19T09:06:56;100359.75;;;20.15;100.00
44992;BME280;56865;51.618;7.406;2023-03-19T09:09:27;100374.56;;;20.05;100.00
44992;BME280;56865;51.618;7.406;2023-03-19T09:11:57;100373.69;;;19.48;100.00
44992;BME280;56865;51.618;7.406;2023-03-19T09:14:27;100386.97;;;19.83;100.00
44992;BME280;56865;51.618;7.406;2023-03-19T09:16:57;100430.91;;;19.85;100.00
44992;BME280;56865;51.618;7.406;2023-03-19T09:19:27;100435.06;;;19.32;100.00
44992;BME280;56865;51.618;7.406;2023-03-19T09:22:20;100453.38;;;19.81;100.00
44992;BME280;56865;51.618;7.406;2023-03-19T09:27:52;100464.53;;;19.86;100.00
44992;BME280;56865;51.618;7.406;2023-03-19T09:33:22;100510.56;;;20.23;100.00
44992;BME280;56865;51.618;7.406;2023-03-19T09:36:03;100510.03;;;19.31;100.00
44992;BME280;56865;51.618;7.406;2023-03-19T09:38:36;100499.94;;;19.83;100.00
44992;BME280;56865;51.618;7.406;2023-03-19T09:41:08;100515.47;;;19.78;100.00
44992;BME280;56865;51.618;7.406;2023-03-19T09:43:43;100527.34;;;19.97;100.00
44992;BME280;56865;51.618;7.406;2023-03-19T09:46:17;100534.97;;;20.05;100.00
44992;BME280;56865;51.618;7.406;2023-03-19T09:54:12;100534.22;;;20.55;100.00
44992;BME280;56865;51.618;7.406;2023-03-19T10:08:24;100565.66;;;20.88;100.00
44992;BME280;56865;51.618;7.406;2023-03-19T10:11:08;100593.03;;;21.51;100.00
44992;BME280;56865;51.618;7.406;2023-03-19T10:16:28;100593.38;;;20.83;100.00
44992;BME280;56865;51.618;7.406;2023-03-19T10:19:01;100595.00;;;20.90;100.00
44992;BME280;56865;51.618;7.406;2023-03-19T10:21:36;100589.66;;;20.41;100.00
44992;BME280;56865;51.618;7.406;2023-03-19T10:24:12;100598.97;;;20.55;100.00
44992;BME280;56865;51.618;7.406;2023-03-19T10:26:49;100596.53;;;21.50;100.00
44992;BME280;56865;51.618;7.406;2023-03-19T10:29:25;100590.13;;;21.21;100.00
44992;BME280;56865;51.618;7.406;2023-03-19T10:31:58;100604.63;;;21.32;100.00
44992;BME280;56865;51.618;7.406;2023-03-19T10:34:33;100594.44;;;20.68;100.00
44992;BME280;56865;51.618;7.406;2023-03-19T10:37:04;100598.03;;;21.15;100.00
44992;BME280;56865;51.618;7.406;2023-03-19T10:39:34;100590.22;;;20.63;100.00
44992;BME280;56865;51.618;7.406;2023-03-19T10:42:17;100592.69;;;21.23;100.00
44992;BME280;56865;51.618;7.406;2023-03-19T10:44:48;100601.69;;;21.03;100.00
44992;BME280;56865;51.618;7.406;2023-03-19T10:47:19;100613.91;;;21.90;100.00
44992;BME280;56865;51.618;7.406;2023-03-19T10:49:54;100611.47;;;21.83;100.00
44992;BME280;56865;51.618;7.406;2023-03-19T10:52:26;100625.56;;;21.69;100.00
44992;BME280;56865;51.618;7.406;2023-03-19T10:55:02;100604.75;;;22.54;100.00
44992;BME280;56865;51.618;7.406;2023-03-19T10:57:35;100625.59;;;22.88;100.00
44992;BME280;56865;51.618;7.406;2023-03-19T11:00:13;100616.06;;;22.89;100.00
44992;BME280;56865;51.618;7.406;2023-03-19T11:02:47;100632.16;;;23.38;100.00
44992;BME280;56865;51.618;7.406;2023-03-19T11:05:22;100639.19;;;23.36;100.00
44992;BME280;56865;51.618;7.406;2023-03-19T11:07:55;100641.81;;;23.67;100.00
44992;BME280;56865;51.618;7.406;2023-03-19T11:10:26;100639.44;;;23.91;100.00
44992;BME280;56865;51.618;7.406;2023-03-19T11:13:02;100633.97;;;24.00;100.00
44992;BME280;56865;51.618;7.406;2023-03-19T11:15:33;100644.97;;;24.39;100.00
44992;BME280;56865;51.618;7.406;2023-03-19T11:18:06;100651.56;;;24.22;100.00
44992;BME280;56865;51.618;7.406;2023-03-19T11:20:37;100644.31;;;24.60;100.00
44992;BME280;56865;51.618;7.406;2023-03-19T11:23:11;100638.50;;;25.33;100.00
44992;BME280;56865;51.618;7.406;2023-03-19T11:25:48;100639.28;;;25.36;100.00
44992;BME280;56865;51.618;7.406;2023-03-19T11:28:35;100642.78;;;25.60;100.00
44992;BME280;56865;51.618;7.406;2023-03-19T11:31:14;100646.00;;;25.43;100.00
44992;BME280;56865;51.618;7.406;2023-03-19T11:33:58;100644.09;;;26.20;100.00
44992;BME280;56865;51.618;7.406;2023-03-19T11:36:37;100654.03;;;25.10;100.00
44992;BME280;56865;51.618;7.406;2023-03-19T11:39:17;100649.63;;;24.86;100.00
44992;BME280;56865;51.618;7.406;2023-03-19T11:41:57;100637.75;;;25.54;100.00
44992;BME280;56865;51.618;7.406;2023-03-19T11:47:20;100648.13;;;24.78;100.00
44992;BME280;56865;51.618;7.406;2023-03-19T11:52:52;100638.53;;;24.79;100.00
44992;BME280;56865;51.618;7.406;2023-03-19T11:55:27;100633.50;;;25.52;100.00
44992;BME280;56865;51.618;7.406;2023-03-19T11:58:07;100643.03;;;25.53;100.00
44992;BME280;56865;51.618;7.406;2023-03-19T12:00:45;100643.59;;;25.36;100.00
44992;BME280;56865;51.618;7.406;2023-03-19T12:03:32;100639.72;;;24.95;100.00
44992;BME280;56865;51.618;7.406;2023-03-19T12:06:27;100634.97;;;25.08;100.00
44992;BME280;56865;51.618;7.406;2023-03-19T12:09:07;100633.81;;;25.17;100.00
44992;BME280;56865;51.618;7.406;2023-03-19T12:11:41;100644.81;;;25.52;100.00
44992;BME280;56865;51.618;7.406;2023-03-19T12:14:24;100636.53;;;25.39;100.00
44992;BME280;56865;51.618;7.406;2023-03-19T12:17:02;100638.31;;;25.39;100.00
44992;BME280;56865;51.618;7.406;2023-03-19T12:19:47;100642.75;;;25.10;100.00
44992;BME280;56865;51.618;7.406;2023-03-19T12:22:24;100643.59;;;25.10;100.00
44992;BME280;56865;51.618;7.406;2023-03-19T12:25:02;100652.94;;;24.34;100.00
44992;BME280;56865;51.618;7.406;2023-03-19T12:27:38;100650.00;;;24.45;100.00
44992;BME280;56865;51.618;7.406;2023-03-19T12:30:15;100645.28;;;23.99;100.00
44992;BME280;56865;51.618;7.406;2023-03-19T12:32:57;100652.56;;;23.55;100.00
44992;BME280;56865;51.618;7.406;2023-03-19T12:35:33;100643.59;;;23.65;100.00
44992;BME280;56865;51.618;7.406;2023-03-19T12:38:07;100652.69;;;24.13;100.00
44992;BME280;56865;51.618;7.406;2023-03-19T12:40:44;100649.44;;;23.41;100.00
44992;BME280;56865;51.618;7.406;2023-03-19T12:43:28;100645.84;;;23.46;100.00
44992;BME280;56865;51.618;7.406;2023-03-19T12:46:01;100642.00;;;23.28;100.00
44992;BME280;56865;51.618;7.406;2023-03-19T12:48:34;100654.16;;;23.59;100.00
44992;BME280;56865;51.618;7.406;2023-03-19T12:51:12;100656.84;;;22.87;100.00
44992;BME280;56865;51.618;7.406;2023-03-19T12:53:47;100657.97;;;21.95;100.00
44992;BME280;56865;51.618;7.406;2023-03-19T12:56:20;100648.19;;;21.63;100.00
44992;BME280;56865;51.618;7.406;2023-03-19T12:58:54;100655.38;;;21.47;100.00
44992;BME280;56865;51.618;7.406;2023-03-19T13:01:26;100654.53;;;21.93;100.00
44992;BME280;56865;51.618;7.406;2023-03-19T13:03:58;100653.84;;;20.82;100.00
44992;BME280;56865;51.618;7.406;2023-03-19T13:06:36;100657.53;;;20.63;100.00
44992;BME280;56865;51.618;7.406;2023-03-19T13:09:12;100660.34;;;20.50;100.00
44992;BME280;56865;51.618;7.406;2023-03-19T13:11:47;100657.03;;;20.99;100.00
44992;BME280;56865;51.618;7.406;2023-03-19T13:14:24;100665.59;;;22.03;100.00
44992;BME280;56865;51.618;7.406;2023-03-19T13:16:56;100663.91;;;21.03;100.00
44992;BME280;56865;51.618;7.406;2023-03-19T13:19:32;100650.16;;;24.40;100.00
44992;BME280;56865;51.618;7.406;2023-03-19T13:22:08;100660.56;;;21.95;100.00
44992;BME280;56865;51.618;7.406;2023-03-19T13:24:39;100656.44;;;21.85;100.00
44992;BME280;56865;51.618;7.406;2023-03-19T13:27:14;100658.44;;;22.55;100.00
44992;BME280;56865;51.618;7.406;2023-03-19T13:29:55;100657.97;;;22.36;100.00
44992;BME280;56865;51.618;7.406;2023-03-19T13:32:33;100657.91;;;22.40;100.00
44992;BME280;56865;51.618;7.406;2023-03-19T13:35:08;100658.81;;;22.77;100.00
44992;BME280;56865;51.618;7.406;2023-03-19T13:37:44;100662.66;;;22.61;100.00
44992;BME280;56865;51.618;7.406;2023-03-19T13:43:00;100650.16;;;22.36;100.00
44992;BME280;56865;51.618;7.406;2023-03-19T13:45:32;100650.75;;;22.08;100.00
44992;BME280;56865;51.618;7.406;2023-03-19T13:50:53;100649.09;;;22.84;100.00
44992;BME280;56865;51.618;7.406;2023-03-19T13:53:36;100650.28;;;23.07;100.00
44992;BME280;56865;51.618;7.406;2023-03-19T13:56:08;100646.44;;;22.87;100.00
44992;BME280;56865;51.618;7.406;2023-03-19T14:01:42;100646.88;;;23.04;100.00
44992;BME280;56865;51.618;7.406;2023-03-19T14:04:19;100637.06;;;23.17;100.00
44992;BME280;56865;51.618;7.406;2023-03-19T14:06:51;100646.06;;;23.02;100.00
44992;BME280;56865;51.618;7.406;2023-03-19T14:09:34;100638.84;;;23.14;100.00
44992;BME280;56865;51.618;7.406;2023-03-19T14:12:08;100658.66;;;23.85;100.00
44992;BME280;56865;51.618;7.406;2023-03-19T14:14:40;100657.66;;;23.58;100.00
44992;BME280;56865;51.618;7.406;2023-03-19T14:17:13;100654.72;;;22.67;100.00
44992;BME280;56865;51.618;7.406;2023-03-19T14:19:43;100658.81;;;22.38;100.00
44992;BME280;56865;51.618;7.406;2023-03-19T14:22:18;100651.31;;;22.22;100.00
44992;BME280;56865;51.618;7.406;2023-03-19T14:27:38;100649.97;;;22.47;100.00
44992;BME280;56865;51.618;7.406;2023-03-19T14:30:15;100658.06;;;21.89;100.00
44992;BME280;56865;51.618;7.406;2023-03-19T14:32:48;100652.06;;;22.29;100.00
44992;BME280;56865;51.618;7.406;2023-03-19T14:35:21;100650.16;;;22.39;100.00
44992;BME280;56865;51.618;7.406;2023-03-19T14:37:53;100655.06;;;22.09;100.00
44992;BME280;56865;51.618;7.406;2023-03-19T14:40:25;100659.72;;;22.34;100.00
44992;BME280;56865;51.618;7.406;2023-03-19T14:42:59;100657.81;;;22.44;100.00
44992;BME280;56865;51.618;7.406;2023-03-19T14:45:42;100649.59;;;23.00;100.00
44992;BME280;56865;51.618;7.406;2023-03-19T14:51:18;100662.34;;;21.45;100.00
44992;BME280;56865;51.618;7.406;2023-03-19T14:53:52;100653.78;;;21.38;100.00
44992;BME280;56865;51.618;7.406;2023-03-19T14:59:15;100661.22;;;22.03;100.00
44992;BME280;56865;51.618;7.406;2023-03-19T15:01:47;100661.63;;;22.27;100.00
44992;BME280;56865;51.618;7.406;2023-03-19T15:04:19;100656.94;;;22.45;100.00
44992;BME280;56865;51.618;7.406;2023-03-19T15:06:50;100660.72;;;22.28;100.00
44992;BME280;56865;51.618;7.406;2023-03-19T15:09:23;100660.19;;;22.12;100.00
44992;BME280;56865;51.618;7.406;2023-03-19T15:12:00;100653.03;;;23.00;100.00
44992;BME280;56865;51.618;7.406;2023-03-19T15:14:44;100654.94;;;22.56;100.00
44992;BME280;56865;51.618;7.406;2023-03-19T15:17:20;100660.63;;;22.33;100.00
44992;BME280;56865;51.618;7.406;2023-03-19T15:19:51;100658.84;;;22.36;100.00
44992;BME280;56865;51.618;7.406;2023-03-19T15:22:24;100659.69;;;22.76;100.00
44992;BME280;56865;51.618;7.406;2023-03-19T15:24:56;100675.81;;;22.53;100.00
44992;BME280;56865;51.618;7.406;2023-03-19T15:27:34;100661.31;;;22.82;100.00
44992;BME280;56865;51.618;7.406;2023-03-19T15:32:53;100664.31;;;23.01;100.00
44992;BME280;56865;51.618;7.406;2023-03-19T15:35:40;100664.22;;;22.68;100.00
44992;BME280;56865;51.618;7.406;2023-03-19T15:38:10;100663.13;;;22.39;100.00
44992;BME280;56865;51.618;7.406;2023-03-19T15:40:42;100666.97;;;22.60;100.00
44992;BME280;56865;51.618;7.406;2023-03-19T15:43:12;100667.75;;;22.64;100.00
44992;BME280;56865;51.618;7.406;2023-03-19T15:45:44;100679.00;;;22.66;100.00
44992;BME280;56865;51.618;7.406;2023-03-19T15:48:23;100664.81;;;22.79;100.00
44992;BME280;56865;51.618;7.406;2023-03-19T15:50:57;100678.25;;;22.61;100.00
44992;BME280;56865;51.618;7.406;2023-03-19T15:53:30;100663.19;;;23.46;100.00
44992;BME280;56865;51.618;7.406;2023-03-19T15:56:04;100672.75;;;22.73;100.00
44992;BME280;56865;51.618;7.406;2023-03-19T15:58:37;100680.22;;;22.49;100.00
44992;BME280;56865;51.618;7.406;2023-03-19T16:01:08;100673.94;;;22.17;100.00
44992;BME280;56865;51.618;7.406;2023-03-19T16:03:44;100674.25;;;22.02;100.00
44992;BME280;56865;51.618;7.406;2023-03-19T16:06:21;100675.56;;;22.23;100.00
44992;BME280;56865;51.618;7.406;2023-03-19T16:08:53;100677.69;;;22.04;100.00
44992;BME280;56865;51.618;7.406;2023-03-19T16:11:28;100689.44;;;21.77;100.00
44992;BME280;56865;51.618;7.406;2023-03-19T16:13:58;100684.06;;;21.86;100.00
44992;BME280;56865;51.618;7.406;2023-03-19T16:16:29;100692.34;;;22.06;100.00
44992;BME280;56865;51.618;7.406;2023-03-19T16:19:02;100687.00;;;22.55;100.00
44992;BME280;56865;51.618;7.406;2023-03-19T16:21:37;100689.69;;;22.08;100.00
44992;BME280;56865;51.618;7.406;2023-03-19T16:24:11;100694.06;;;22.07;100.00
44992;BME280;56865;51.618;7.406;2023-03-19T16:26:45;100695.44;;;22.24;100.00
44992;BME280;56865;51.618;7.406;2023-03-19T16:29:17;100702.94;;;22.39;100.00
44992;BME280;56865;51.618;7.406;2023-03-19T16:31:49;100708.06;;;21.97;100.00
44992;BME280;56865;51.618;7.406;2023-03-19T16:34:33;100701.97;;;22.01;100.00
44992;BME280;56865;51.618;7.406;2023-03-19T16:39:54;100713.34;;;21.94;100.00
44992;BME280;56865;51.618;7.406;2023-03-19T16:42:33;100715.69;;;21.61;100.00
44992;BME280;56865;51.618;7.406;2023-03-19T16:48:00;100709.09;;;21.90;100.00
44992;BME280;56865;51.618;7.406;2023-03-19T16:50:36;100709.03;;;21.93;100.00
44992;BME280;56865;51.618;7.406;2023-03-19T16:53:10;100714.81;;;22.07;100.00
44992;BME280;56865;51.618;7.406;2023-03-19T16:55:41;100710.53;;;22.05;100.00
44992;BME280;56865;51.618;7.406;2023-03-19T16:58:16;100719.56;;;23.09;100.00
44992;BME280;56865;51.618;7.406;2023-03-19T17:00:48;100724.94;;;23.01;100.00
44992;BME280;56865;51.618;7.406;2023-03-19T18:08:44;100810.25;;;21.37;100.00
44992;BME280;56865;51.618;7.406;2023-03-19T18:11:32;100810.28;;;21.91;100.00
44992;BME280;56865;51.618;7.406;2023-03-19T18:14:35;100816.41;;;21.31;100.00
44992;BME280;56865;51.618;7.406;2023-03-19T18:17:15;100810.47;;;21.23;100.00
44992;BME280;56865;51.618;7.406;2023-03-19T18:19:59;100817.34;;;21.27;100.00
44992;BME280;56865;51.618;7.406;2023-03-19T18:22:42;100818.47;;;21.07;100.00
44992;BME280;56865;51.618;7.406;2023-03-19T18:25:30;100820.94;;;21.74;100.00
44992;BME280;56865;51.618;7.406;2023-03-19T18:28:42;100826.84;;;21.84;100.00
44992;BME280;56865;51.618;7.406;2023-03-19T18:34:33;100829.25;;;21.95;100.00
44992;BME280;56865;51.618;7.406;2023-03-19T18:35:22;100833.56;;;21.96;100.00
44992;BME280;56865;51.618;7.406;2023-03-19T18:38:11;100839.66;;;21.94;100.00
44992;BME280;56865;51.618;7.406;2023-03-19T18:50:28;100850.50;;;21.64;100.00
44992;BME280;56865;51.618;7.406;2023-03-19T19:03:29;100865.63;;;20.64;100.00
44992;BME280;56865;51.618;7.406;2023-03-19T19:09:16;100867.91;;;20.92;100.00
44992;BME280;56865;51.618;7.406;2023-03-19T19:12:52;100876.53;;;20.96;100.00
44992;BME280;56865;51.618;7.406;2023-03-19T19:16:14;100878.94;;;21.09;100.00
44992;BME280;56865;51.618;7.406;2023-03-19T19:44:11;100902.47;;;20.91;100.00
44992;BME280;56865;51.618;7.406;2023-03-19T19:46:43;100906.88;;;20.86;100.00
44992;BME280;56865;51.618;7.406;2023-03-19T19:49:18;100913.06;;;20.71;100.00
44992;BME280;56865;51.618;7.406;2023-03-19T19:51:52;100916.03;;;20.29;100.00
44992;BME280;56865;51.618;7.406;2023-03-19T19:54:22;100912.44;;;20.45;100.00
44992;BME280;56865;51.618;7.406;2023-03-19T19:56:53;100916.84;;;20.36;100.00
44992;BME280;56865;51.618;7.406;2023-03-19T19:59:26;100920.25;;;20.36;100.00
44992;BME280;56865;51.618;7.406;2023-03-19T20:01:56;100922.88;;;20.38;100.00